Time;durP1;ratioP1;P1;durP2;ratioP2;P2;SDS_P1;SDS_P2;PMS_P1;PMS_P2;Temp;Humidity;BMP_temperature;BMP_pressure;BME280_temperature;BME280_humidity;BME280_pressure;Samples;Min_cycle;Max_cycle;Signal;HPM_P1;HPM_P2
2023/03/30 00:00:48;;;;;;;5.90;2.10;;;;;;;21.03;42.17;100545.50;5051085;28;20427;-68
2023/03/30 00:03:13;;;;;;;5.57;2.15;;;;;;;21.21;41.58;100563.97;5071810;28;20021;-68
2023/03/30 00:05:41;;;;;;;5.00;2.28;;;;;;;21.08;42.05;100559.38;5070089;28;20544;-69
2023/03/30 00:08:07;;;;;;;7.80;2.58;;;;;;;22.40;39.80;100544.31;5051711;28;20039;-69
2023/03/30 00:10:32;;;;;;;4.75;2.47;;;;;;;22.19;39.40;100544.69;5054399;28;20024;-68
2023/03/30 00:12:58;;;;;;;5.93;2.30;;;;;;;22.92;38.54;100545.38;5052039;28;20024;-68
2023/03/30 00:15:23;;;;;;;5.63;2.38;;;;;;;22.37;38.73;100533.88;5052293;28;20115;-69
2023/03/30 00:17:53;;;;;;;5.40;2.28;;;;;;;21.76;40.63;100539.41;5071734;28;20388;-68
2023/03/30 00:20:20;;;;;;;6.97;2.40;;;;;;;22.58;38.84;100546.75;5052528;28;20372;-68
2023/03/30 00:22:46;;;;;;;6.68;2.47;;;;;;;22.06;39.51;100546.41;5050639;28;20108;-68
2023/03/30 00:25:14;;;;;;;4.20;1.90;;;;;;;22.17;39.47;100541.28;5052352;28;20031;-69
2023/03/30 00:27:40;;;;;;;4.47;2.42;;;;;;;21.98;39.59;100548.69;5051533;28;20017;-69
2023/03/30 00:30:10;;;;;;;4.55;1.95;;;;;;;22.38;39.60;100556.00;5069263;28;20471;-69
2023/03/30 00:32:36;;;;;;;7.10;2.33;;;;;;;21.50;40.03;100568.41;5053824;28;20054;-69
2023/03/30 00:35:01;;;;;;;5.90;2.33;;;;;;;21.74;40.27;100562.56;5071390;28;20063;-69
2023/03/30 00:37:28;;;;;;;5.07;2.20;;;;;;;21.66;40.12;100554.22;5069096;28;20035;-69
2023/03/30 00:39:54;;;;;;;5.82;2.25;;;;;;;21.68;39.85;100557.66;5070062;28;20024;-68
2023/03/30 00:42:20;;;;;;;7.43;2.17;;;;;;;21.78;39.63;100548.13;5051110;28;20043;-68
2023/03/30 00:45:19;;;;;;;4.65;2.10;;;;;;;22.46;38.60;100541.25;5052551;28;20032;-69
2023/03/30 00:47:51;;;;;;;6.82;2.65;;;;;;;21.94;39.71;100536.53;5071241;28;20033;-68
2023/03/30 00:50:20;;;;;;;9.45;2.50;;;;;;;21.67;39.87;100529.34;5050149;28;20097;-69
2023/03/30 00:52:51;;;;;;;12.85;2.53;;;;;;;20.47;42.08;100530.06;5052390;28;20033;-69
2023/03/30 00:55:19;;;;;;;5.43;2.03;;;;;;;20.73;41.27;100533.06;5070865;28;20074;-69
2023/03/30 00:57:45;;;;;;;5.32;2.25;;;;;;;21.61;39.58;100535.00;5050485;28;20021;-68
2023/03/30 01:00:11;;;;;;;3.67;1.85;;;;;;;21.36;40.35;100541.78;5067868;28;20027;-69
2023/03/30 01:02:42;;;;;;;7.85;2.50;;;;;;;21.93;39.17;100534.84;5052735;28;20111;-69
2023/03/30 01:05:09;;;;;;;6.63;2.40;;;;;;;21.23;39.85;100535.50;5069663;28;20032;-68
2023/03/30 01:07:38;;;;;;;8.13;2.30;;;;;;;22.53;38.22;100539.91;5070516;28;20039;-69
2023/03/30 01:10:04;;;;;;;3.53;1.95;;;;;;;21.51;39.88;100532.91;5066878;28;20027;-70
2023/03/30 01:12:30;;;;;;;7.15;2.35;;;;;;;21.36;40.20;100528.50;5051481;28;20113;-69
2023/03/30 01:14:56;;;;;;;6.97;2.50;;;;;;;21.30;39.78;100527.06;5070604;28;20024;-69
2023/03/30 01:17:38;;;;;;;3.80;2.22;;;;;;;21.04;40.79;100523.28;5070182;28;20020;-69
2023/03/30 01:20:25;;;;;;;6.10;2.47;;;;;;;21.70;39.74;100521.16;5047229;28;20472;-68
2023/03/30 01:23:11;;;;;;;7.22;2.15;;;;;;;21.82;39.98;100531.03;5050187;28;20408;-68
2023/03/30 01:26:01;;;;;;;3.00;2.40;;;;;;;21.67;40.08;100524.00;5051327;28;20032;-69
2023/03/30 01:28:41;;;;;;;4.68;2.42;;;;;;;21.34;40.60;100517.97;5050068;28;20051;-69
2023/03/30 01:31:24;;;;;;;7.00;2.88;;;;;;;21.74;39.85;100488.09;5063932;28;20029;-69
2023/03/30 01:33:56;;;;;;;7.93;2.35;;;;;;;21.51;40.00;100508.97;5050759;28;20135;-69
2023/03/30 01:36:59;;;;;;;4.68;2.10;;;;;;;21.52;40.11;100494.75;5067311;28;20076;-68
2023/03/30 01:40:05;;;;;;;6.60;2.67;;;;;;;21.54;40.16;100493.81;5068715;28;20024;-68
2023/03/30 01:42:41;;;;;;;5.53;2.50;;;;;;;21.59;39.93;100486.41;5047154;28;20039;-68
2023/03/30 01:45:26;;;;;;;7.57;2.47;;;;;;;21.96;39.03;100486.75;5067456;28;20077;-68
2023/03/30 01:47:57;;;;;;;6.47;2.40;;;;;;;21.70;40.12;100478.59;5060863;28;20173;-68
2023/03/30 01:50:36;;;;;;;4.50;2.72;;;;;;;22.05;39.68;100470.22;5089005;28;20027;-68
2023/03/30 01:53:30;;;;;;;9.23;2.83;;;;;;;21.29;40.80;100476.66;5086917;28;20391;-69
2023/03/30 01:55:59;;;;;;;;;;;;;;;21.84;40.11;100472.41;5085953;28;20495;-69
2023/03/30 01:58:30;;;;;;;7.15;2.53;;;;;;;21.18;41.04;100472.84;5088449;28;20002;-68
2023/03/30 02:00:59;;;;;;;4.70;2.17;;;;;;;20.89;41.29;100481.69;5087663;28;20032;-69
2023/03/30 02:03:29;;;;;;;8.60;2.63;;;;;;;20.81;42.32;100488.31;5088345;28;20055;-68
2023/03/30 02:06:02;;;;;;;6.57;2.92;;;;;;;20.92;42.38;100500.09;5086702;28;20044;-69
2023/03/30 02:08:31;;;;;;;5.13;2.20;;;;;;;21.16;41.61;100506.63;5087986;28;20024;-68
2023/03/30 02:10:57;;;;;;;9.63;2.50;;;;;;;20.91;42.33;100501.03;5088381;28;20024;-69
2023/03/30 02:13:25;;;;;;;6.65;2.03;;;;;;;20.20;44.41;100502.41;5089293;28;20069;-69
2023/03/30 02:15:57;;;;;;;6.85;2.28;;;;;;;19.70;44.88;100506.81;5084186;28;20436;-68
2023/03/30 02:18:23;;;;;;;21.63;2.97;;;;;;;20.99;42.58;100490.81;5087211;28;20020;-68
2023/03/30 02:20:49;;;;;;;5.03;1.83;;;;;;;21.02;42.49;100496.81;5088089;28;20375;-69
2023/03/30 02:23:18;;;;;;;9.38;2.67;;;;;;;21.22;42.29;100501.91;5086446;28;20023;-68
2023/03/30 02:25:44;;;;;;;10.68;2.58;;;;;;;21.58;41.60;100508.63;5086841;28;20028;-68
2023/03/30 02:28:10;;;;;;;5.88;2.22;;;;;;;20.35;44.25;100498.88;5088980;28;20032;-68
2023/03/30 02:30:41;;;;;;;8.25;2.50;;;;;;;20.61;44.22;100497.41;5087204;28;20483;-68
2023/03/30 02:33:09;;;;;;;8.50;2.40;;;;;;;20.17;45.02;100498.97;5087706;28;20099;-69
2023/03/30 02:36:12;;;;;;;4.47;2.00;;;;;;;20.76;44.64;100495.69;5087940;28;20218;-68
2023/03/30 02:38:53;;;;;;;6.82;1.83;;;;;;;20.34;45.89;100491.88;5086312;28;20085;-69
2023/03/30 02:42:06;;;;;;;5.55;2.00;;;;;;;20.33;46.10;100487.50;5086808;28;20035;-68
2023/03/30 02:45:00;;;;;;;7.00;2.25;;;;;;;21.02;45.01;100480.88;5080239;28;20032;-68
2023/03/30 02:47:51;;;;;;;6.18;2.03;;;;;;;20.24;45.92;100482.72;5084318;28;20048;-68
2023/03/30 02:50:33;;;;;;;7.88;2.20;;;;;;;20.44;46.11;100471.84;5030036;28;20032;-69
2023/03/30 02:53:23;;;;;;;4.72;2.10;;;;;;;20.35;46.12;100459.06;5032632;28;20123;-68
2023/03/30 02:56:20;;;;;;;5.70;2.00;;;;;;;20.56;45.73;100461.44;5064607;28;20029;-69
2023/03/30 02:59:03;;;;;;;8.93;2.35;;;;;;;21.56;43.66;100458.19;5046817;28;20085;-68
2023/03/30 03:01:56;;;;;;;8.93;2.47;;;;;;;20.23;46.56;100475.69;5069148;28;20365;-68
2023/03/30 03:04:24;;;;;;;5.97;2.17;;;;;;;20.32;46.06;100472.53;5044897;28;20298;-68
2023/03/30 03:06:51;;;;;;;4.53;2.08;;;;;;;20.25;46.13;100463.19;5068748;28;20020;-68
2023/03/30 03:09:23;;;;;;;3.63;1.80;;;;;;;19.38;48.62;100467.84;5046682;28;20499;-68
2023/03/30 03:11:50;;;;;;;8.32;2.42;;;;;;;20.28;47.25;100473.66;5048210;28;20067;-69
2023/03/30 03:14:16;;;;;;;5.68;1.80;;;;;;;20.50;46.44;100471.47;5068782;28;20036;-68
2023/03/30 03:16:41;;;;;;;9.50;1.88;;;;;;;20.57;46.44;100465.81;5050995;28;20036;-69
2023/03/30 03:19:07;;;;;;;3.38;1.67;;;;;;;20.17;47.31;100467.13;5048452;28;20476;-69
2023/03/30 03:21:33;;;;;;;6.57;2.10;;;;;;;20.61;46.62;100470.00;5066860;28;20036;-68
2023/03/30 03:23:58;;;;;;;7.07;1.77;;;;;;;21.07;45.70;100456.69;5048761;28;20085;-69
2023/03/30 03:26:24;;;;;;;4.22;1.30;;;;;;;20.28;47.30;100457.72;5052418;28;20056;-69
2023/03/30 03:28:49;;;;;;;5.82;1.65;;;;;;;20.79;46.13;100452.19;5054302;28;20468;-69
2023/03/30 03:31:14;;;;;;;3.67;1.52;;;;;;;19.54;48.96;100461.75;5054292;28;20538;-68
2023/03/30 03:33:40;;;;;;;3.72;1.65;;;;;;;19.30;50.01;100448.84;5051337;28;20089;-68
2023/03/30 03:36:05;;;;;;;7.40;1.90;;;;;;;19.71;50.14;100442.25;5039374;28;20040;-68
2023/03/30 03:38:31;;;;;;;5.22;1.80;;;;;;;19.58;50.16;100447.38;5054420;28;20081;-68
2023/03/30 03:40:58;;;;;;;9.98;2.35;;;;;;;20.00;49.48;100440.69;5053554;28;20025;-68
2023/03/30 03:43:24;;;;;;;7.30;1.70;;;;;;;19.60;50.30;100437.53;5053252;28;20508;-68
2023/03/30 03:45:50;;;;;;;5.25;1.50;;;;;;;19.56;50.46;100443.94;5070184;28;20060;-68
2023/03/30 03:48:17;;;;;;;5.72;1.60;;;;;;;20.00;49.46;100443.34;5069837;28;20087;-68
2023/03/30 03:50:43;;;;;;;4.45;1.60;;;;;;;20.60;48.22;100442.59;5054421;28;20028;-69
2023/03/30 03:53:11;;;;;;;7.68;1.58;;;;;;;20.15;48.91;100445.16;5069860;28;20040;-69
2023/03/30 03:55:37;;;;;;;7.55;1.67;;;;;;;18.90;51.67;100450.91;5070689;28;20103;-68
2023/03/30 03:58:04;;;;;;;12.85;2.08;;;;;;;18.28;54.18;100443.31;5071071;28;20120;-69
2023/03/30 04:00:30;;;;;;;9.88;2.05;;;;;;;18.56;53.76;100449.91;5070925;28;20361;-68
2023/03/30 04:02:56;;;;;;;7.35;1.67;;;;;;;18.98;53.23;100459.31;5052070;28;20034;-69
2023/03/30 04:05:22;;;;;;;13.23;2.40;;;;;;;18.88;53.84;100448.34;5053053;28;20032;-69
2023/03/30 04:07:47;;;;;;;15.32;3.13;;;;;;;19.01;56.17;100456.50;5051187;28;20563;-68
2023/03/30 04:10:14;;;;;;;7.25;2.40;;;;;;;17.99;59.24;100457.94;5070355;28;20404;-68
2023/03/30 04:12:39;;;;;;;13.75;2.60;;;;;;;18.52;61.10;100466.88;5071968;28;20032;-68
2023/03/30 04:15:06;;;;;;;11.63;1.90;;;;;;;17.30;67.10;100462.75;5069637;28;20478;-68
2023/03/30 04:17:35;;;;;;;19.20;2.72;;;;;;;18.06;64.33;100459.38;5052724;28;20156;-68
2023/03/30 04:20:03;;;;;;;16.33;3.37;;;;;;;17.91;66.21;100455.63;5069927;28;20040;-69
2023/03/30 04:22:31;;;;;;;11.93;2.33;;;;;;;18.14;63.92;100463.34;5053030;28;20054;-68
2023/03/30 04:24:58;;;;;;;11.03;2.63;;;;;;;18.61;62.60;100471.72;5071399;28;20024;-68
2023/03/30 04:27:24;;;;;;;16.13;2.67;;;;;;;17.96;65.13;100461.59;5070511;28;20476;-69
2023/03/30 04:29:50;;;;;;;16.60;3.00;;;;;;;18.48;65.35;100456.44;5049355;28;20029;-68
2023/03/30 04:32:19;;;;;;;18.97;3.03;;;;;;;18.96;61.86;100448.81;5070307;28;20086;-68
2023/03/30 04:34:46;;;;;;;23.80;3.30;;;;;;;17.72;66.19;100461.78;5052996;28;20396;-68
2023/03/30 04:37:17;;;;;;;25.23;3.20;;;;;;;17.95;66.73;100462.50;5051701;28;20032;-68
2023/03/30 04:39:45;;;;;;;21.23;3.23;;;;;;;17.57;67.27;100447.47;5051388;28;20050;-68
2023/03/30 04:42:13;;;;;;;16.00;3.30;;;;;;;17.51;67.91;100452.16;5051728;28;20339;-68
2023/03/30 04:44:41;;;;;;;18.87;3.23;;;;;;;17.95;65.76;100452.78;5053459;28;20033;-68
2023/03/30 04:47:07;;;;;;;15.70;2.17;;;;;;;17.67;66.84;100441.75;5052504;28;20025;-68
2023/03/30 04:49:32;;;;;;;14.60;2.63;;;;;;;17.73;64.71;100431.75;5068068;28;20036;-68
2023/03/30 04:51:58;;;;;;;20.90;4.20;;;;;;;18.04;63.36;100429.47;5052113;28;20084;-68
2023/03/30 04:54:23;;;;;;;21.27;3.90;;;;;;;18.22;62.88;100441.00;5069787;28;20114;-68
2023/03/30 04:56:48;;;;;;;17.63;3.20;;;;;;;18.21;62.72;100437.47;5069026;28;20028;-68
2023/03/30 04:59:14;;;;;;;23.43;4.83;;;;;;;17.01;66.92;100433.19;5052761;28;20388;-69
2023/03/30 05:01:39;;;;;;;17.43;2.97;;;;;;;16.98;65.04;100433.34;5051988;28;20369;-68
2023/03/30 05:04:05;;;;;;;24.83;4.00;;;;;;;17.80;63.21;100430.56;5050498;28;20040;-68
2023/03/30 05:06:30;;;;;;;29.40;3.07;;;;;;;18.04;61.54;100425.06;5052027;28;20028;-68
2023/03/30 05:08:56;;;;;;;17.60;3.67;;;;;;;17.33;64.76;100428.28;5051382;28;20185;-68
2023/03/30 05:11:21;;;;;;;21.10;3.23;;;;;;;17.75;63.20;100424.63;5069518;28;20029;-68
2023/03/30 05:13:50;;;;;;;25.83;4.23;;;;;;;17.66;63.17;100427.69;5069118;28;20031;-68
2023/03/30 05:16:16;;;;;;;24.00;3.63;;;;;;;17.57;61.10;100425.44;5069285;28;20181;-68
2023/03/30 05:18:42;;;;;;;17.57;3.30;;;;;;;17.56;60.86;100418.47;5068798;28;20103;-68
2023/03/30 05:21:07;;;;;;;28.50;3.10;;;;;;;16.72;64.80;100416.78;5051436;28;20024;-69
2023/03/30 05:23:33;;;;;;;26.67;3.40;;;;;;;18.17;59.06;100433.25;5069001;28;20032;-69
2023/03/30 05:25:58;;;;;;;23.73;3.97;;;;;;;17.38;62.03;100426.31;5067739;28;20404;-68
2023/03/30 05:28:24;;;;;;;27.10;3.53;;;;;;;17.06;63.31;100423.31;5069700;28;20033;-68
2023/03/30 05:30:55;;;;;;;26.83;3.77;;;;;;;17.26;63.97;100421.56;5069880;28;20052;-69
2023/03/30 05:33:21;;;;;;;18.23;3.10;;;;;;;17.32;63.04;100429.19;5067257;28;20037;-68
2023/03/30 05:35:46;;;;;;;23.80;3.70;;;;;;;18.32;59.03;100439.59;5049148;28;20033;-68
2023/03/30 05:38:12;;;;;;;26.23;3.60;;;;;;;17.32;61.45;100445.03;5049932;28;20477;-68
2023/03/30 05:40:37;;;;;;;23.93;3.57;;;;;;;17.49;62.55;100438.16;5052119;28;20044;-68
2023/03/30 05:43:04;;;;;;;29.90;3.50;;;;;;;16.94;64.69;100434.41;5067660;28;20043;-68
2023/03/30 05:45:29;;;;;;;29.97;4.23;;;;;;;17.20;62.93;100440.31;5066820;28;20032;-69
2023/03/30 05:47:55;;;;;;;23.03;3.27;;;;;;;17.07;62.95;100456.69;5062223;28;20060;-68
2023/03/30 05:50:21;;;;;;;25.70;3.80;;;;;;;17.60;60.00;100446.47;5085724;28;20036;-68
2023/03/30 05:52:47;;;;;;;26.30;3.83;;;;;;;17.51;60.33;100445.09;5086510;28;20391;-70
2023/03/30 05:55:12;;;;;;;26.97;3.67;;;;;;;16.90;60.95;100456.56;5087520;28;20032;-69
2023/03/30 05:57:38;;;;;;;27.10;3.70;;;;;;;17.76;59.78;100468.63;5090035;28;20035;-69
2023/03/30 06:00:09;;;;;;;29.47;4.80;;;;;;;16.98;62.24;100467.66;5086181;28;20052;-69
2023/03/30 06:02:35;;;;;;;26.27;4.17;;;;;;;17.50;61.64;100466.28;5089999;28;20032;-70
2023/03/30 06:05:01;;;;;;;22.70;3.13;;;;;;;17.30;61.59;100458.31;5079375;28;20097;-69
2023/03/30 06:07:26;;;;;;;24.90;3.90;;;;;;;17.78;59.40;100476.50;5087527;28;20024;-69
2023/03/30 06:09:53;;;;;;;29.03;4.30;;;;;;;16.83;62.30;100468.25;5088095;28;20498;-69
2023/03/30 06:12:18;;;;;;;25.67;3.60;;;;;;;16.90;63.65;100475.03;5085600;28;20042;-69
2023/03/30 06:14:43;;;;;;;28.17;4.60;;;;;;;16.90;62.75;100467.97;5082380;28;20028;-69
2023/03/30 06:17:11;;;;;;;24.50;3.40;;;;;;;17.05;63.18;100477.03;5080816;28;20023;-70
2023/03/30 06:19:37;;;;;;;20.63;4.30;;;;;;;16.82;62.24;100480.59;5088533;28;20032;-70
2023/03/30 06:22:04;;;;;;;25.83;2.97;;;;;;;17.58;60.01;100474.75;5086861;28;20032;-69
2023/03/30 06:24:30;;;;;;;20.67;2.93;;;;;;;17.99;57.17;100469.38;5089719;28;20088;-70
2023/03/30 06:26:55;;;;;;;31.03;4.13;;;;;;;18.03;57.75;100476.22;5088285;28;20044;-69
2023/03/30 06:29:21;;;;;;;29.07;3.60;;;;;;;17.80;58.89;100486.06;5083912;28;20036;-69
2023/03/30 06:31:46;;;;;;;33.67;3.77;;;;;;;17.86;58.17;100494.63;5085374;28;20340;-70
2023/03/30 06:34:12;;;;;;;18.30;3.00;;;;;;;17.51;60.20;100497.09;5087329;28;20042;-70
2023/03/30 06:36:37;;;;;;;35.43;4.03;;;;;;;17.75;58.42;100481.88;5086767;28;20505;-69
2023/03/30 06:39:04;;;;;;;23.07;3.50;;;;;;;17.66;59.01;100501.69;5084317;28;20062;-70
2023/03/30 06:41:30;;;;;;;30.50;4.67;;;;;;;17.25;60.50;100504.34;5085396;28;20076;-70
2023/03/30 06:43:55;;;;;;;24.87;3.47;;;;;;;17.27;61.53;100507.81;5084331;28;20036;-69
2023/03/30 06:46:20;;;;;;;22.57;4.03;;;;;;;17.50;59.32;100511.22;5088193;28;20035;-69
2023/03/30 06:48:46;;;;;;;29.73;4.00;;;;;;;17.30;60.23;100507.66;5086272;28;20113;-69
2023/03/30 06:51:13;;;;;;;28.03;3.53;;;;;;;16.95;62.82;100523.22;5087794;28;20039;-70
2023/03/30 06:53:39;;;;;;;25.23;3.70;;;;;;;17.78;59.66;100524.06;5084845;28;20024;-70
2023/03/30 06:56:05;;;;;;;26.30;3.97;;;;;;;18.29;57.17;100527.06;5086398;28;20069;-70
2023/03/30 06:58:32;;;;;;;36.80;4.10;;;;;;;17.54;60.03;100526.00;5086087;28;20016;-70
2023/03/30 07:00:57;;;;;;;28.67;4.60;;;;;;;16.62;64.06;100527.16;5050762;28;20024;-70
2023/03/30 07:03:23;;;;;;;24.60;3.87;;;;;;;17.84;59.33;100521.13;5069556;28;20047;-70
2023/03/30 07:05:49;;;;;;;29.17;4.47;;;;;;;17.58;59.58;100538.16;5078916;28;20036;-70
2023/03/30 07:08:16;;;;;;;31.07;4.33;;;;;;;17.78;58.92;100532.00;5083370;28;20028;-70
2023/03/30 07:10:41;;;;;;;29.57;4.47;;;;;;;18.00;58.23;100533.69;5083711;28;20020;-70
2023/03/30 07:13:07;;;;;;;34.67;4.63;;;;;;;17.67;58.29;100537.75;5081914;28;20339;-70
2023/03/30 07:15:33;;;;;;;26.23;4.30;;;;;;;17.84;58.26;100539.63;5076777;28;20036;-70
2023/03/30 07:17:58;;;;;;;29.17;4.57;;;;;;;18.20;57.22;100540.72;5066336;28;20030;-71
2023/03/30 07:20:24;;;;;;;31.40;4.33;;;;;;;18.05;58.30;100543.16;5078249;28;20142;-70
2023/03/30 07:22:49;;;;;;;26.97;3.90;;;;;;;18.68;56.24;100554.34;5079155;28;20547;-70
2023/03/30 07:25:15;;;;;;;29.13;4.20;;;;;;;18.97;55.91;100547.63;5084384;28;20586;-70
2023/03/30 07:27:40;;;;;;;46.33;6.28;;;;;;;18.79;55.02;100550.25;5088307;28;20051;-70
2023/03/30 07:30:07;;;;;;;25.33;4.15;;;;;;;17.84;60.34;100550.22;5080058;28;20472;-70
2023/03/30 07:32:33;;;;;;;32.97;4.03;;;;;;;18.41;57.81;100550.28;5084511;28;20035;-70
2023/03/30 07:34:59;;;;;;;39.00;5.45;;;;;;;17.91;57.67;100554.31;5069467;28;20020;-70
2023/03/30 07:37:24;;;;;;;43.42;4.38;;;;;;;18.46;55.23;100553.59;5084964;28;20028;-70
2023/03/30 07:39:50;;;;;;;38.65;5.30;;;;;;;17.34;61.17;100562.09;5081818;28;20081;-70
2023/03/30 07:42:15;;;;;;;36.17;4.40;;;;;;;18.31;58.49;100575.44;5085680;28;20043;-70
2023/03/30 07:44:41;;;;;;;37.53;4.68;;;;;;;17.97;58.37;100561.16;5087889;28;20035;-71
2023/03/30 07:47:06;;;;;;;32.00;5.22;;;;;;;18.05;58.24;100568.72;5087130;28;20070;-69
2023/03/30 07:49:32;;;;;;;39.88;4.70;;;;;;;18.47;57.83;100579.09;5067373;28;20040;-70
2023/03/30 07:51:58;;;;;;;35.63;4.78;;;;;;;17.93;59.53;100581.56;5065950;28;20446;-70
2023/03/30 07:54:23;;;;;;;34.13;3.50;;;;;;;17.16;61.38;100581.31;5063584;28;21290;-70
2023/03/30 07:56:51;;;;;;;25.30;3.55;;;;;;;17.98;57.47;100578.69;5067700;28;20024;-69
2023/03/30 07:59:21;;;;;;;25.33;4.75;;;;;;;17.62;60.52;100584.66;5042261;28;20111;-69
2023/03/30 08:01:53;;;;;;;32.90;4.82;;;;;;;18.00;58.35;100571.56;5047670;28;20035;-70
2023/03/30 08:04:20;;;;;;;37.88;5.13;;;;;;;17.66;60.75;100588.91;5044110;28;20060;-69
2023/03/30 08:06:46;;;;;;;20.42;3.15;;;;;;;17.36;60.68;100586.63;5058393;28;20108;-70
2023/03/30 08:09:12;;;;;;;31.50;4.88;;;;;;;18.33;58.39;100583.31;5038822;28;20039;-69
2023/03/30 08:11:38;;;;;;;34.00;4.10;;;;;;;18.39;57.55;100575.94;5067642;28;20032;-69
2023/03/30 08:14:04;;;;;;;22.88;3.90;;;;;;;18.81;55.64;100580.13;5050053;28;20502;-70
2023/03/30 08:16:30;;;;;;;29.10;4.00;;;;;;;18.64;55.78;100598.59;5071165;28;20024;-69
2023/03/30 08:18:55;;;;;;;29.58;3.85;;;;;;;19.38;53.85;100594.19;5050789;28;20711;-69
2023/03/30 08:21:24;;;;;;;29.48;4.57;;;;;;;19.07;55.20;100593.94;5050691;28;20116;-69
2023/03/30 08:23:55;;;;;;;24.73;4.18;;;;;;;19.24;53.56;100602.84;5047618;28;20562;-70
2023/03/30 08:26:20;;;;;;;28.38;4.82;;;;;;;20.19;52.75;100596.22;5070027;28;20055;-70
2023/03/30 08:28:46;;;;;;;25.70;4.45;;;;;;;19.62;53.20;100594.75;5042940;28;20122;-69
2023/03/30 08:31:11;;;;;;;31.08;5.97;;;;;;;20.21;51.95;100591.66;5048756;28;20032;-69
2023/03/30 08:33:36;;;;;;;35.17;4.80;;;;;;;20.40;50.26;100595.03;5047188;28;20060;-70
2023/03/30 08:36:03;;;;;;;26.25;4.68;;;;;;;20.28;50.23;100579.78;5050331;28;20024;-70
2023/03/30 08:38:28;;;;;;;27.95;4.43;;;;;;;21.35;46.98;100580.81;5050313;28;20032;-70
2023/03/30 08:40:54;;;;;;;22.67;4.18;;;;;;;21.61;46.54;100593.50;5068332;28;20032;-69
2023/03/30 08:43:19;;;;;;;29.63;3.83;;;;;;;23.02;43.91;100582.91;5067923;28;20430;-70
2023/03/30 08:45:46;;;;;;;27.85;4.63;;;;;;;22.25;44.24;100587.84;5071414;28;20483;-70
2023/03/30 08:48:20;;;;;;;39.88;4.93;;;;;;;22.66;42.90;100600.38;5061824;28;20072;-70
2023/03/30 08:50:56;;;;;;;32.42;4.15;;;;;;;21.84;44.67;100603.63;5088908;28;20047;-69
2023/03/30 08:53:21;;;;;;;29.98;4.50;;;;;;;21.93;43.90;100606.69;5076153;28;20495;-69
2023/03/30 08:56:06;;;;;;;24.15;4.15;;;;;;;22.28;44.12;100611.63;5089187;28;20028;-69
2023/03/30 08:58:47;;;;;;;41.45;5.65;;;;;;;20.93;45.76;100608.09;5089521;28;20016;-69
2023/03/30 09:01:21;;;;;;;30.88;4.82;;;;;;;20.62;46.50;100612.41;5088159;28;20028;-69
2023/03/30 09:04:11;;;;;;;31.67;5.22;;;;;;;21.59;45.30;100606.06;5089140;28;20023;-70
2023/03/30 09:07:07;;;;;;;36.17;4.47;;;;;;;22.51;42.67;100629.69;5088613;28;20035;-69
2023/03/30 09:09:41;;;;;;;25.02;4.60;;;;;;;21.26;44.81;100621.22;5082455;28;20106;-69
2023/03/30 09:12:33;;;;;;;39.55;4.85;;;;;;;21.12;45.66;100635.31;5083892;28;20028;-69
2023/03/30 09:15:10;;;;;;;30.67;4.85;;;;;;;20.79;46.27;100628.31;5084385;28;20499;-69
2023/03/30 09:17:44;;;;;;;30.92;4.93;;;;;;;20.79;45.08;100643.41;5088807;28;20111;-69
2023/03/30 09:20:20;;;;;;;31.73;4.50;;;;;;;20.91;45.45;100648.03;5078321;28;20050;-70
2023/03/30 09:22:47;;;;;;;34.85;4.70;;;;;;;21.60;44.10;100645.00;5085777;28;20024;-70
2023/03/30 09:25:44;;;;;;;31.33;5.50;;;;;;;21.59;44.00;100643.28;5086599;28;20028;-69
2023/03/30 09:28:17;;;;;;;38.67;5.13;;;;;;;22.28;43.24;100643.56;5087372;28;20036;-69
2023/03/30 09:30:55;;;;;;;36.28;5.05;;;;;;;22.77;41.99;100653.81;5078958;28;20063;-70
2023/03/30 09:33:31;;;;;;;37.35;5.40;;;;;;;21.90;42.55;100654.75;5085439;28;20099;-69
2023/03/30 09:36:34;;;;;;;28.88;5.15;;;;;;;22.13;42.63;100643.56;5075323;28;20032;-69
2023/03/30 09:39:00;;;;;;;31.90;4.60;;;;;;;21.76;42.89;100651.13;5018636;28;20097;-69
2023/03/30 09:42:03;;;;;;;33.53;5.22;;;;;;;21.86;42.79;100646.94;5089681;28;20035;-69
2023/03/30 09:44:35;;;;;;;32.35;4.80;;;;;;;20.80;44.42;100651.28;5083086;28;20063;-69
2023/03/30 09:47:07;;;;;;;33.00;4.50;;;;;;;20.77;45.41;100663.84;5086237;28;20077;-69
2023/03/30 09:49:38;;;;;;;33.50;4.78;;;;;;;21.79;44.47;100660.69;5081740;28;20040;-69
2023/03/30 09:52:19;;;;;;;33.45;5.07;;;;;;;22.31;42.26;100667.31;5084697;28;20131;-69
2023/03/30 09:54:45;;;;;;;34.17;5.60;;;;;;;21.10;44.01;100669.09;5089789;28;20028;-69
2023/03/30 09:57:26;;;;;;;34.70;4.60;;;;;;;22.36;41.96;100662.59;5084188;28;20051;-69
2023/03/30 09:59:54;;;;;;;34.40;5.10;;;;;;;21.69;43.00;100679.91;5085338;28;20031;-69
2023/03/30 10:02:21;;;;;;;35.38;5.10;;;;;;;22.05;41.89;100680.44;5084166;28;20036;-69
2023/03/30 10:04:52;;;;;;;33.22;4.80;;;;;;;22.24;42.20;100681.97;5073189;28;20028;-70
2023/03/30 10:07:21;;;;;;;23.98;4.57;;;;;;;20.37;45.62;100679.28;5066687;28;20032;-70
2023/03/30 10:09:46;;;;;;;43.33;5.95;;;;;;;22.07;43.19;100675.88;5068770;28;20109;-70
2023/03/30 10:12:13;;;;;;;33.58;4.53;;;;;;;20.90;43.96;100687.97;5075201;28;20115;-70
2023/03/30 10:14:39;;;;;;;32.95;4.97;;;;;;;22.39;41.05;100683.69;5083594;28;20047;-70
2023/03/30 10:17:06;;;;;;;32.38;5.03;;;;;;;22.12;41.82;100694.22;5083902;28;20355;-71
2023/03/30 10:19:33;;;;;;;35.38;5.43;;;;;;;21.72;42.84;100686.84;5083219;28;20475;-70
2023/03/30 10:22:02;;;;;;;33.58;4.90;;;;;;;22.03;43.10;100693.81;5087316;28;20032;-70
2023/03/30 10:24:32;;;;;;;29.88;4.13;;;;;;;20.63;44.54;100696.44;5088187;28;20028;-70
2023/03/30 10:27:08;;;;;;;26.42;4.63;;;;;;;20.99;44.05;100693.59;5082491;28;20027;-69
2023/03/30 10:29:34;;;;;;;32.33;5.20;;;;;;;20.44;45.33;100686.84;5083751;28;20093;-69
2023/03/30 10:32:13;;;;;;;29.40;4.80;;;;;;;21.76;43.03;100693.69;5082713;28;20035;-70
2023/03/30 10:34:51;;;;;;;23.75;4.28;;;;;;;22.49;42.28;100684.84;5074917;28;20470;-69
2023/03/30 10:37:35;;;;;;;26.17;4.57;;;;;;;22.31;41.90;100699.25;5088600;28;20035;-69
2023/03/30 10:40:22;;;;;;;35.45;5.13;;;;;;;22.81;40.45;100695.28;5089085;28;20081;-70
2023/03/30 10:42:54;;;;;;;16.35;3.65;;;;;;;20.98;43.81;100694.53;5086903;28;20062;-69
2023/03/30 10:45:26;;;;;;;22.75;4.32;;;;;;;21.91;42.32;100696.38;5087096;28;20028;-69
2023/03/30 10:48:05;;;;;;;28.73;5.10;;;;;;;22.14;43.20;100697.66;5086635;28;20060;-69
2023/03/30 10:50:52;;;;;;;30.80;4.75;;;;;;;20.87;43.44;100714.66;5087744;28;20042;-69
2023/03/30 10:53:25;;;;;;;36.38;5.22;;;;;;;22.04;42.61;100708.00;5088568;28;20437;-69
2023/03/30 10:56:12;;;;;;;34.65;4.90;;;;;;;21.42;44.48;100706.25;5087895;28;20530;-68
2023/03/30 10:59:19;;;;;;;31.33;4.88;;;;;;;20.83;44.32;100709.53;5089240;28;20464;-68
2023/03/30 11:02:09;;;;;;;28.55;4.55;;;;;;;21.57;43.72;100711.66;5075053;28;20044;-69
2023/03/30 11:04:43;;;;;;;27.73;4.18;;;;;;;21.48;43.63;100705.88;5087974;28;20024;-68
2023/03/30 11:07:50;;;;;;;28.38;3.63;;;;;;;20.50;45.31;100709.53;5088293;28;20360;-69
2023/03/30 11:10:28;;;;;;;30.33;4.07;;;;;;;21.29;43.87;100711.41;5087974;28;20028;-69
2023/03/30 11:13:06;;;;;;;26.73;3.30;;;;;;;20.45;45.88;100730.16;5088871;28;20111;-68
2023/03/30 11:15:55;;;;;;;26.25;4.30;;;;;;;21.12;44.70;100711.53;5089380;28;20027;-68
2023/03/30 11:18:54;;;;;;;26.60;3.20;;;;;;;20.26;46.67;100728.47;5087251;28;20447;-67
2023/03/30 11:21:29;;;;;;;26.50;4.15;;;;;;;20.50;46.54;100718.34;5088551;28;20032;-68
2023/03/30 11:24:03;;;;;;;32.92;4.82;;;;;;;21.05;45.17;100724.28;5086605;28;20464;-68
2023/03/30 11:26:37;;;;;;;26.13;4.22;;;;;;;21.02;45.66;100703.22;5087718;28;20016;-68
2023/03/30 11:29:07;;;;;;;31.30;6.28;;;;;;;20.12;46.64;100713.25;5087350;28;20573;-69
2023/03/30 11:32:09;;;;;;;29.85;3.88;;;;;;;21.10;45.08;100708.06;5086901;28;20483;-68
2023/03/30 11:34:53;;;;;;;20.67;3.95;;;;;;;20.27;47.26;100742.59;5087696;28;20023;-69
2023/03/30 11:37:45;;;;;;;33.00;4.63;;;;;;;20.36;47.02;100733.28;5086342;28;20039;-68